createdAt,value
2023-04-27T00:00:29.261Z,97989.19
2023-04-27T00:03:51.931Z,97994.91
2023-04-27T00:06:55.668Z,97991.19
2023-04-27T00:09:59.525Z,97994.00
2023-04-27T00:13:06.387Z,97992.72
2023-04-27T00:16:10.793Z,97994.47
2023-04-27T00:19:15.881Z,97990.66
2023-04-27T00:22:21.256Z,97996.19
2023-04-27T00:25:25.599Z,97994.72
2023-04-27T00:28:31.590Z,97993.41
2023-04-27T00:31:38.924Z,97983.16
2023-04-27T00:34:42.898Z,97988.84
2023-04-27T00:37:47.172Z,97986.53
2023-04-27T00:40:51.893Z,97985.75
2023-04-27T00:43:58.128Z,97986.06
2023-04-27T00:47:04.236Z,97979.75
2023-04-27T00:50:10.652Z,97979.94
2023-04-27T00:53:15.887Z,97989.84
2023-04-27T00:56:20.330Z,97981.03
2023-04-27T00:59:27.558Z,97983.03
2023-04-27T01:02:31.795Z,97987.50
2023-04-27T01:05:37.536Z,97990.16
2023-04-27T01:08:41.437Z,98001.44
2023-04-27T01:11:46.228Z,97997.41
2023-04-27T01:14:51.437Z,98006.59
2023-04-27T01:17:59.777Z,98001.88
2023-04-27T01:21:05.280Z,98011.47
2023-04-27T01:24:11.711Z,98015.72
2023-04-27T01:27:15.636Z,98006.72
2023-04-27T01:30:20.886Z,98014.72
2023-04-27T01:33:24.573Z,98012.31
2023-04-27T01:36:29.331Z,98021.38
2023-04-27T01:39:37.054Z,98018.44
2023-04-27T01:42:40.987Z,98031.34
2023-04-27T01:45:45.831Z,98021.09
2023-04-27T01:48:49.936Z,98023.91
2023-04-27T01:51:53.664Z,98028.88
2023-04-27T01:54:59.584Z,98025.06
2023-04-27T01:58:04.281Z,98020.19
2023-04-27T02:01:09.740Z,98023.78
2023-04-27T02:04:13.563Z,98028.97
2023-04-27T02:07:18.077Z,98024.34
2023-04-27T02:10:51.087Z,98027.31
2023-04-27T02:13:56.213Z,98023.75
2023-04-27T02:17:07.936Z,98022.44
2023-04-27T02:20:13.106Z,98029.88
2023-04-27T02:23:16.831Z,98023.06
2023-04-27T02:26:29.239Z,98032.34
2023-04-27T02:29:38.966Z,98027.25
2023-04-27T02:32:44.769Z,98022.84
2023-04-27T02:35:51.697Z,98021.44
2023-04-27T02:38:55.785Z,98031.13
2023-04-27T02:42:01.597Z,98039.72
2023-04-27T02:45:24.712Z,98042.66
2023-04-27T02:48:28.541Z,98051.28
2023-04-27T02:51:38.171Z,98045.66
2023-04-27T02:54:42.059Z,98045.81
2023-04-27T02:57:47.625Z,98044.16
2023-04-27T03:00:56.217Z,98046.13
2023-04-27T03:04:00.593Z,98049.88
2023-04-27T03:07:04.805Z,98058.16
2023-04-27T03:10:34.471Z,98062.69
2023-04-27T03:13:42.639Z,98058.56
2023-04-27T03:16:47.025Z,98064.22
2023-04-27T03:19:50.673Z,98055.25
2023-04-27T03:22:54.934Z,98063.72
2023-04-27T03:25:58.462Z,98070.22
2023-04-27T03:29:03.950Z,98068.28
2023-04-27T03:32:07.913Z,98074.97
2023-04-27T03:35:12.568Z,98082.41
2023-04-27T03:38:16.205Z,98075.84
2023-04-27T03:41:20.532Z,98074.88
2023-04-27T03:44:25.583Z,98070.16
2023-04-27T03:47:29.815Z,98080.38
2023-04-27T03:50:33.996Z,98093.88
2023-04-27T03:53:38.607Z,98091.09
2023-04-27T03:56:44.553Z,98094.75
2023-04-27T03:59:50.509Z,98097.41
2023-04-27T04:02:54.400Z,98102.94
2023-04-27T04:05:58.939Z,98107.06
2023-04-27T04:09:03.601Z,98103.81
2023-04-27T04:12:09.026Z,98100.78
2023-04-27T04:15:14.971Z,98103.56
2023-04-27T04:18:20.040Z,98108.19
2023-04-27T04:21:24.410Z,98109.13
2023-04-27T04:24:28.688Z,98120.28
2023-04-27T04:27:34.049Z,98115.78
2023-04-27T04:30:39.813Z,98120.13
2023-04-27T04:33:43.705Z,98118.78
2023-04-27T04:36:47.943Z,98114.63
2023-04-27T04:39:51.740Z,98124.78
2023-04-27T04:42:56.453Z,98127.25
2023-04-27T04:46:01.750Z,98136.88
2023-04-27T04:49:06.320Z,98136.75
2023-04-27T04:52:10.678Z,98136.59
2023-04-27T04:55:15.411Z,98133.91
2023-04-27T04:58:19.127Z,98133.63
2023-04-27T05:01:26.568Z,98136.81
2023-04-27T05:04:31.115Z,98139.03
2023-04-27T05:07:35.832Z,98146.31
2023-04-27T05:10:39.473Z,98144.47
2023-04-27T05:13:44.044Z,98162.78
2023-04-27T05:16:51.755Z,98155.75
2023-04-27T05:19:55.798Z,98158.22
2023-04-27T05:22:59.504Z,98163.25
2023-04-27T05:26:12.183Z,98165.34
2023-04-27T05:29:16.135Z,98165.44
2023-04-27T05:32:22.330Z,98168.13
2023-04-27T05:35:26.121Z,98167.41
2023-04-27T05:38:30.277Z,98181.19
2023-04-27T05:41:34.225Z,98174.78
2023-04-27T05:44:40.117Z,98171.63
2023-04-27T05:47:45.252Z,98167.94
2023-04-27T05:50:49.371Z,98174.03
2023-04-27T05:53:55.369Z,98176.34
2023-04-27T05:56:59.470Z,98183.84
2023-04-27T06:00:07.488Z,98182.75
2023-04-27T06:03:18.028Z,98186.03
2023-04-27T06:06:21.691Z,98185.22
2023-04-27T06:09:25.683Z,98187.50
2023-04-27T06:12:29.430Z,98196.19
2023-04-27T06:15:33.458Z,98204.88
2023-04-27T06:18:38.597Z,98193.91
2023-04-27T06:21:42.560Z,98200.28
2023-04-27T06:24:46.901Z,98197.97
2023-04-27T06:27:51.900Z,98185.75
2023-04-27T06:30:55.901Z,98199.63
2023-04-27T06:34:01.531Z,98200.03
2023-04-27T06:37:05.234Z,98194.00
2023-04-27T06:40:09.881Z,98193.19
2023-04-27T06:43:13.927Z,98193.53
2023-04-27T06:46:18.061Z,98198.91
2023-04-27T06:49:23.497Z,98194.00
2023-04-27T06:52:27.579Z,98191.59
2023-04-27T06:55:31.094Z,98197.00
2023-04-27T06:58:34.905Z,98202.38
2023-04-27T07:01:39.951Z,98199.66
2023-04-27T07:04:45.998Z,98197.38
2023-04-27T07:07:49.814Z,98205.78
2023-04-27T07:10:53.939Z,98208.94
2023-04-27T07:13:57.590Z,98193.09
2023-04-27T07:17:01.619Z,98199.97
2023-04-27T07:20:08.998Z,98198.72
2023-04-27T07:23:13.278Z,98206.47
2023-04-27T07:26:17.036Z,98203.44
2023-04-27T07:29:26.980Z,98209.59
2023-04-27T07:32:31.249Z,98197.78
2023-04-27T07:35:37.149Z,98204.09
2023-04-27T07:38:44.790Z,98213.34
2023-04-27T07:41:50.195Z,98195.88
2023-04-27T07:44:54.417Z,98211.16
2023-04-27T07:48:00.405Z,98210.09
2023-04-27T07:51:05.658Z,98210.88
2023-04-27T07:54:09.671Z,98200.66
2023-04-27T07:57:13.268Z,98213.75
2023-04-27T08:00:17.894Z,98202.84
2023-04-27T08:03:27.185Z,98209.88
2023-04-27T08:06:33.354Z,98216.38
2023-04-27T08:09:37.818Z,98201.50
2023-04-27T08:12:41.838Z,98200.41
2023-04-27T08:15:46.498Z,98210.19
2023-04-27T08:18:51.576Z,98210.53
2023-04-27T08:21:56.632Z,98199.31
2023-04-27T08:25:01.811Z,98197.78
2023-04-27T08:28:05.711Z,98211.47
2023-04-27T08:31:09.468Z,98204.66
2023-04-27T08:34:13.096Z,98206.78
2023-04-27T08:37:18.827Z,98207.88
2023-04-27T08:40:24.931Z,98211.34
2023-04-27T08:43:33.734Z,98209.50
2023-04-27T08:46:39.783Z,98202.94
2023-04-27T08:49:44.177Z,98200.66
2023-04-27T08:52:50.793Z,98204.81
2023-04-27T08:55:56.429Z,98211.69
2023-04-27T08:59:02.944Z,98207.56
2023-04-27T09:02:08.177Z,98201.78
2023-04-27T09:05:18.749Z,98207.88
2023-04-27T09:08:24.065Z,98202.72
2023-04-27T09:11:32.442Z,98198.72
2023-04-27T09:14:37.096Z,98197.34
2023-04-27T09:17:40.911Z,98202.56
2023-04-27T09:20:46.798Z,98210.66
2023-04-27T09:23:52.824Z,98205.88
2023-04-27T09:26:59.048Z,98206.53
2023-04-27T09:30:14.594Z,98200.84
2023-04-27T09:33:24.639Z,98195.75
2023-04-27T09:37:42.666Z,98191.25
2023-04-27T09:40:48.817Z,98195.63
2023-04-27T09:43:56.343Z,98187.75
2023-04-27T09:47:02.725Z,98184.28
2023-04-27T09:50:08.363Z,98184.00
2023-04-27T09:53:15.867Z,98185.25
2023-04-27T09:56:32.718Z,98171.13
2023-04-27T10:00:06.918Z,98187.84
2023-04-27T10:03:25.254Z,98194.81
2023-04-27T10:07:00.466Z,98179.06
2023-04-27T10:10:05.260Z,98174.91
2023-04-27T10:13:21.810Z,98172.91
2023-04-27T10:16:25.714Z,98172.59
2023-04-27T10:19:29.939Z,98173.94
2023-04-27T10:22:43.144Z,98178.09
2023-04-27T10:25:48.857Z,98177.13
2023-04-27T10:29:07.554Z,98175.56
2023-04-27T10:32:12.660Z,98171.53
2023-04-27T10:35:16.505Z,98168.22
2023-04-27T10:38:23.543Z,98171.72
2023-04-27T10:41:35.700Z,98159.84
2023-04-27T10:44:41.354Z,98176.75
2023-04-27T10:47:47.079Z,98174.44
2023-04-27T10:50:53.449Z,98177.03
2023-04-27T10:53:57.493Z,98164.38
2023-04-27T10:57:06.909Z,98159.44
2023-04-27T11:00:16.550Z,98164.19
2023-04-27T11:03:24.102Z,98167.94
2023-04-27T11:06:30.471Z,98165.50
2023-04-27T11:09:34.414Z,98162.94
2023-04-27T11:12:38.225Z,98165.34
2023-04-27T11:15:51.419Z,98173.84
2023-04-27T11:18:57.397Z,98174.41
2023-04-27T11:22:06.374Z,98172.75
2023-04-27T11:25:10.704Z,98169.59
2023-04-27T11:28:19.283Z,98162.53
2023-04-27T11:31:25.068Z,98159.75
2023-04-27T11:34:34.369Z,98168.81
2023-04-27T11:37:38.470Z,98172.38
2023-04-27T11:40:42.838Z,98172.97
2023-04-27T11:43:49.823Z,98171.38
2023-04-27T11:46:55.758Z,98162.63
2023-04-27T11:50:01.020Z,98161.75
2023-04-27T11:53:05.041Z,98155.63
2023-04-27T11:56:11.333Z,98158.44
2023-04-27T11:59:23.062Z,98150.31
2023-04-27T12:02:29.370Z,98153.41
2023-04-27T12:05:33.824Z,98165.78
2023-04-27T12:08:38.166Z,98171.91
2023-04-27T12:11:42.162Z,98163.03
2023-04-27T12:14:46.573Z,98166.72
2023-04-27T12:17:52.496Z,98173.16
2023-04-27T12:20:56.078Z,98171.34
2023-04-27T12:24:00.282Z,98161.47
2023-04-27T12:27:04.596Z,98162.81
2023-04-27T12:30:09.520Z,98174.31
2023-04-27T12:33:16.851Z,98170.84
2023-04-27T12:36:22.556Z,98173.75
2023-04-27T12:39:26.177Z,98170.59
2023-04-27T12:42:30.288Z,98161.50
2023-04-27T12:45:33.976Z,98167.66
2023-04-27T12:48:39.509Z,98157.16
2023-04-27T12:51:43.752Z,98162.63
2023-04-27T12:54:47.884Z,98171.19
2023-04-27T12:57:51.625Z,98169.34
2023-04-27T13:00:57.777Z,98156.91
2023-04-27T13:04:05.778Z,98161.34
2023-04-27T13:07:10.752Z,98151.59
2023-04-27T13:10:14.518Z,98157.41
2023-04-27T13:13:19.014Z,98150.59
2023-04-27T13:16:25.548Z,98158.66
2023-04-27T13:19:33.341Z,98163.56
2023-04-27T13:22:37.308Z,98179.38
2023-04-27T13:25:42.230Z,98158.94
2023-04-27T13:28:46.403Z,98154.28
2023-04-27T13:31:50.414Z,98151.88
2023-04-27T13:34:56.400Z,98151.44
2023-04-27T13:38:00.967Z,98144.78
2023-04-27T13:41:06.331Z,98154.47
2023-04-27T13:44:09.871Z,98156.44
2023-04-27T13:47:14.126Z,98152.00
2023-04-27T13:50:19.426Z,98131.84
2023-04-27T13:53:26.006Z,98154.81
2023-04-27T13:56:29.725Z,98147.19
2023-04-27T13:59:33.622Z,98153.97
2023-04-27T14:02:37.214Z,98155.69
2023-04-27T14:05:42.531Z,98155.00
2023-04-27T14:08:46.289Z,98154.22
2023-04-27T14:11:56.148Z,98152.00
2023-04-27T14:15:00.355Z,98153.28
2023-04-27T14:18:06.202Z,98172.25
2023-04-27T14:21:11.338Z,98167.94
2023-04-27T14:24:16.149Z,98166.47
2023-04-27T14:27:20.118Z,98159.34
2023-04-27T14:30:26.846Z,98167.94
2023-04-27T14:33:30.561Z,98161.00
2023-04-27T14:36:36.632Z,98168.84
2023-04-27T14:39:45.360Z,98174.81
2023-04-27T14:42:49.476Z,98165.91
2023-04-27T14:45:57.306Z,98174.84
2023-04-27T14:49:10.365Z,98176.44
2023-04-27T14:52:15.590Z,98170.47
2023-04-27T14:55:19.801Z,98183.50
2023-04-27T14:58:24.210Z,98179.44
2023-04-27T15:01:28.357Z,98182.91
2023-04-27T15:04:32.557Z,98174.72
2023-04-27T15:07:40.372Z,98182.97
2023-04-27T15:10:44.046Z,98177.88
2023-04-27T15:13:49.520Z,98185.72
2023-04-27T15:16:53.165Z,98184.84
2023-04-27T15:19:58.316Z,98185.25
2023-04-27T15:23:05.556Z,98189.31
2023-04-27T15:26:10.061Z,98184.56
2023-04-27T15:29:13.777Z,98190.84
2023-04-27T15:32:21.213Z,98197.78
2023-04-27T15:35:25.486Z,98183.13
2023-04-27T15:38:30.734Z,98188.03
2023-04-27T15:41:34.254Z,98198.06
2023-04-27T15:44:57.348Z,98198.47
2023-04-27T15:48:06.541Z,98184.47
2023-04-27T15:51:12.422Z,98195.38
2023-04-27T15:54:18.585Z,98197.88
2023-04-27T15:57:26.720Z,98191.13
2023-04-27T16:00:31.877Z,98189.50
2023-04-27T16:03:37.844Z,98184.66
2023-04-27T16:06:41.804Z,98191.81
2023-04-27T16:09:47.241Z,98190.06
2023-04-27T16:12:51.031Z,98195.09
2023-04-27T16:15:55.314Z,98195.09
2023-04-27T16:19:00.570Z,98196.63
2023-04-27T16:22:05.005Z,98203.94
2023-04-27T16:25:11.685Z,98212.84
2023-04-27T16:28:18.148Z,98213.81
2023-04-27T16:31:22.099Z,98214.13
2023-04-27T16:34:26.297Z,98215.94
2023-04-27T16:37:29.812Z,98216.69
2023-04-27T16:40:35.545Z,98216.69
2023-04-27T16:43:39.108Z,98223.19
2023-04-27T16:46:44.211Z,98218.75
2023-04-27T16:49:48.614Z,98233.41
2023-04-27T16:52:53.541Z,98230.88
2023-04-27T16:56:01.612Z,98236.50
2023-04-27T16:59:06.209Z,98228.13
2023-04-27T17:02:22.959Z,98234.97
2023-04-27T17:05:29.039Z,98227.88
2023-04-27T17:08:34.312Z,98234.38
2023-04-27T17:11:40.413Z,98234.13
2023-04-27T17:14:43.983Z,98235.56
2023-04-27T17:17:48.324Z,98239.75
2023-04-27T17:20:52.134Z,98245.97
2023-04-27T17:23:55.960Z,98247.22
2023-04-27T17:27:04.308Z,98245.94
2023-04-27T17:30:10.550Z,98238.63
2023-04-27T17:33:15.879Z,98253.41
2023-04-27T17:36:19.457Z,98247.19
2023-04-27T17:39:25.188Z,98255.97
2023-04-27T17:42:31.134Z,98260.34
2023-04-27T17:45:35.726Z,98254.63
2023-04-27T17:48:40.903Z,98257.56
2023-04-27T17:51:46.732Z,98258.66
2023-04-27T17:59:53.366Z,98262.97
2023-04-27T18:03:07.315Z,98263.41
2023-04-27T18:10:33.233Z,98279.22
2023-04-27T18:13:36.942Z,98281.44
2023-04-27T18:16:43.260Z,98292.69
2023-04-27T18:20:04.367Z,98299.97
2023-04-27T18:23:12.028Z,98301.50
2023-04-27T18:26:22.159Z,98304.13
2023-04-27T18:29:26.623Z,98310.66
2023-04-27T18:32:31.282Z,98313.28
2023-04-27T18:36:09.890Z,98317.31
2023-04-27T18:39:18.533Z,98313.56
2023-04-27T18:42:22.860Z,98323.91
2023-04-27T18:45:26.759Z,98329.63
2023-04-27T18:48:30.408Z,98330.31
2023-04-27T18:51:34.559Z,98336.50
2023-04-27T18:54:40.013Z,98333.88
2023-04-27T18:57:44.678Z,98341.13
2023-04-27T19:00:54.653Z,98332.31
2023-04-27T19:04:03.192Z,98337.41
2023-04-27T19:07:07.751Z,98344.84
2023-04-27T19:10:14.752Z,98341.34
2023-04-27T19:13:19.964Z,98348.16
2023-04-27T19:16:24.925Z,98352.50
2023-04-27T19:19:29.097Z,98352.34
2023-04-27T19:22:36.831Z,98354.81
2023-04-27T19:25:45.097Z,98344.09
2023-04-27T19:28:59.490Z,98359.72
2023-04-27T19:32:06.387Z,98352.72
2023-04-27T19:35:12.548Z,98357.25
2023-04-27T19:38:27.693Z,98349.88
2023-04-27T19:46:18.690Z,98361.81
2023-04-27T19:49:32.802Z,98349.44
2023-04-27T19:52:37.769Z,98359.47
2023-04-27T19:55:42.412Z,98354.44
2023-04-27T19:58:48.839Z,98364.13
2023-04-27T20:02:04.548Z,98358.13
2023-04-27T20:05:11.604Z,98362.16
2023-04-27T20:08:16.581Z,98366.22
2023-04-27T20:11:21.285Z,98360.78
2023-04-27T20:14:29.206Z,98369.47
2023-04-27T20:17:34.012Z,98371.66
2023-04-27T20:20:38.959Z,98371.09
2023-04-27T20:23:42.995Z,98374.88
2023-04-27T20:26:46.773Z,98369.78
2023-04-27T20:29:52.592Z,98373.97
2023-04-27T20:32:57.615Z,98369.75
2023-04-27T20:36:14.306Z,98367.31
2023-04-27T20:39:25.156Z,98372.03
2023-04-27T20:42:32.542Z,98373.06
2023-04-27T20:45:38.357Z,98370.94
2023-04-27T20:49:34.430Z,98366.06
2023-04-27T20:52:43.078Z,98369.66
2023-04-27T20:55:48.361Z,98364.97
2023-04-27T20:59:21.556Z,98376.66
2023-04-27T21:05:49.275Z,98383.16
2023-04-27T21:09:13.226Z,98374.16
2023-04-27T21:12:20.419Z,98391.97
2023-04-27T21:15:37.880Z,98378.69
2023-04-27T21:18:51.840Z,98381.78
2023-04-27T21:21:56.328Z,98378.72
2023-04-27T21:25:09.095Z,98394.63
2023-04-27T21:32:12.238Z,98381.41
2023-04-27T21:35:16.136Z,98385.19
2023-04-27T21:38:19.702Z,98389.38
2023-04-27T21:41:23.505Z,98393.13
2023-04-27T21:44:29.502Z,98404.81
2023-04-27T21:47:36.059Z,98407.78
2023-04-27T21:50:42.213Z,98404.38
2023-04-27T21:53:46.113Z,98406.44
2023-04-27T21:56:50.201Z,98409.16
2023-04-27T21:59:54.514Z,98417.41
2023-04-27T22:02:59.705Z,98417.50
2023-04-27T22:06:04.596Z,98418.94
2023-04-27T22:09:08.841Z,98424.53
2023-04-27T22:12:12.906Z,98425.63
2023-04-27T22:15:16.568Z,98431.53
2023-04-27T22:18:22.239Z,98427.88
2023-04-27T22:21:26.151Z,98429.94
2023-04-27T22:24:30.591Z,98432.63
2023-04-27T22:27:42.109Z,98423.50
2023-04-27T22:30:48.471Z,98426.34
2023-04-27T22:33:53.800Z,98436.00
2023-04-27T22:36:57.802Z,98428.31
2023-04-27T22:40:02.304Z,98425.91
2023-04-27T22:43:07.033Z,98426.56
2023-04-27T22:46:10.733Z,98437.75
2023-04-27T22:49:17.454Z,98430.41
2023-04-27T22:53:35.588Z,98424.88
2023-04-27T22:56:39.835Z,98423.78
2023-04-27T22:59:43.533Z,98422.09
2023-04-27T23:02:47.931Z,98421.09
2023-04-27T23:05:53.742Z,98428.91
2023-04-27T23:08:58.431Z,98431.88
2023-04-27T23:12:02.186Z,98423.34
2023-04-27T23:15:06.801Z,98420.94
2023-04-27T23:18:10.488Z,98420.53
2023-04-27T23:21:16.459Z,98418.94
2023-04-27T23:24:20.254Z,98423.63
2023-04-27T23:27:25.187Z,98422.09
2023-04-27T23:30:29.964Z,98428.63
2023-04-27T23:33:35.137Z,98426.06
2023-04-27T23:36:40.249Z,98427.81
2023-04-27T23:39:44.707Z,98423.06
2023-04-27T23:42:51.484Z,98425.06
2023-04-27T23:45:56.288Z,98417.50
2023-04-27T23:49:00.039Z,98434.44
2023-04-27T23:52:05.848Z,98428.56
2023-04-27T23:55:32.618Z,98431.38
2023-04-27T23:58:46.690Z,98427.50
